createdAt,value
2023-01-01T00:02:03.830Z,99225.03
2023-01-01T00:04:33.296Z,99237.72
2023-01-01T00:07:01.775Z,99226.75
2023-01-01T00:09:49.484Z,99234.47
2023-01-01T00:12:17.869Z,99230.41
2023-01-01T00:14:46.172Z,99231.97
2023-01-01T00:17:14.517Z,99214.00
2023-01-01T00:19:42.878Z,99207.25
2023-01-01T00:22:52.210Z,99208.91
2023-01-01T00:25:01.138Z,99206.38
2023-01-01T00:27:29.509Z,99197.03
2023-01-01T00:29:58.001Z,99183.41
2023-01-01T00:32:26.438Z,99191.72
2023-01-01T00:34:54.906Z,99176.41
2023-01-01T00:37:23.266Z,99168.81
2023-01-01T00:39:51.648Z,99168.72
2023-01-01T00:42:21.920Z,99154.28
2023-01-01T00:44:50.419Z,99158.56
2023-01-01T00:47:18.849Z,99153.28
2023-01-01T00:49:47.250Z,99147.47
2023-01-01T00:52:15.632Z,99141.59
2023-01-01T00:54:44.134Z,99137.97
2023-01-01T00:57:12.514Z,99130.53
2023-01-01T00:59:42.327Z,99131.34
2023-01-01T01:02:10.857Z,99138.88
2023-01-01T01:04:39.419Z,99119.38
2023-01-01T01:07:07.831Z,99122.84
2023-01-01T01:09:36.607Z,99111.97
2023-01-01T01:12:18.142Z,99112.56
2023-01-01T01:14:48.944Z,99097.16
2023-01-01T01:17:17.388Z,99087.88
2023-01-01T01:19:45.693Z,99089.56
2023-01-01T01:22:14.114Z,99084.66
2023-01-01T01:24:42.507Z,99079.28
2023-01-01T01:27:10.907Z,99083.59
2023-01-01T01:29:39.361Z,99082.81
2023-01-01T01:32:09.341Z,99076.84
2023-01-01T01:34:37.760Z,99072.69
2023-01-01T01:37:06.577Z,99072.63
2023-01-01T01:39:35.058Z,99064.94
2023-01-01T01:42:03.902Z,99064.13
2023-01-01T01:44:52.036Z,99066.78
2023-01-01T01:47:25.960Z,99074.44
2023-01-01T01:49:57.683Z,99066.63
2023-01-01T01:52:26.793Z,99058.94
2023-01-01T01:54:55.657Z,99060.75
2023-01-01T01:57:24.618Z,99056.47
2023-01-01T01:59:55.268Z,99052.28
2023-01-01T02:02:30.410Z,99044.69
2023-01-01T02:04:58.931Z,99048.09
2023-01-01T02:07:27.933Z,99049.91
2023-01-01T02:09:58.753Z,99044.03
2023-01-01T02:12:27.731Z,99043.16
2023-01-01T02:14:56.356Z,99040.56
2023-01-01T02:17:34.007Z,99030.19
2023-01-01T02:20:24.721Z,99027.63
2023-01-01T02:23:06.701Z,99032.91
2023-01-01T02:25:44.801Z,99026.88
2023-01-01T02:28:20.119Z,99025.25
2023-01-01T02:30:50.384Z,99026.16
2023-01-01T02:33:21.826Z,99031.34
2023-01-01T02:35:53.151Z,99029.75
2023-01-01T02:38:24.917Z,99027.78
2023-01-01T02:40:56.772Z,99027.78
2023-01-01T02:43:25.358Z,99020.81
2023-01-01T02:45:55.759Z,99004.69
2023-01-01T02:48:45.144Z,99002.31
2023-01-01T02:51:22.204Z,98986.06
2023-01-01T02:53:56.410Z,98992.91
2023-01-01T02:56:34.269Z,98975.78
2023-01-01T02:59:45.153Z,98984.41
2023-01-01T03:02:22.112Z,98982.59
2023-01-01T03:04:58.707Z,98962.22
2023-01-01T03:07:33.440Z,98951.13
2023-01-01T03:10:06.579Z,98975.00
2023-01-01T03:12:43.668Z,98975.09
2023-01-01T03:15:18.534Z,98975.94
2023-01-01T03:17:48.641Z,98985.09
2023-01-01T03:20:20.589Z,98963.81
2023-01-01T03:22:50.171Z,98970.75
2023-01-01T03:25:22.360Z,98958.75
2023-01-01T03:27:52.115Z,98952.00
2023-01-01T03:30:22.409Z,98946.03
2023-01-01T03:33:01.816Z,98922.28
2023-01-01T03:35:35.755Z,98927.47
2023-01-01T03:38:06.319Z,98923.09
2023-01-01T03:40:36.783Z,98919.50
2023-01-01T03:43:10.446Z,98910.19
2023-01-01T03:45:41.349Z,98899.94
2023-01-01T03:48:11.847Z,98893.13
2023-01-01T03:50:50.620Z,98887.94
2023-01-01T03:53:26.626Z,98889.72
2023-01-01T03:56:01.850Z,98891.47
2023-01-01T03:58:36.653Z,98894.03
2023-01-01T04:01:11.768Z,98889.75
2023-01-01T04:03:42.909Z,98890.63
2023-01-01T04:06:13.034Z,98884.69
2023-01-01T04:08:41.432Z,98888.00
2023-01-01T04:11:29.110Z,98890.56
2023-01-01T04:13:57.503Z,98880.25
2023-01-01T04:16:25.959Z,98881.94
2023-01-01T04:18:55.739Z,98886.19
2023-01-01T04:21:24.169Z,98886.19
2023-01-01T04:23:52.510Z,98886.28
2023-01-01T04:26:21.125Z,98880.28
2023-01-01T04:28:49.449Z,98875.16
2023-01-01T04:31:17.743Z,98861.50
2023-01-01T04:33:47.748Z,98853.00
2023-01-01T04:36:17.415Z,98853.81
2023-01-01T04:38:45.747Z,98856.38
2023-01-01T04:41:14.322Z,98859.13
2023-01-01T04:43:44.506Z,98864.09
2023-01-01T04:46:12.850Z,98859.13
2023-01-01T04:48:41.215Z,98853.09
2023-01-01T04:51:11.326Z,98842.91
2023-01-01T04:53:41.192Z,98840.28
2023-01-01T04:56:11.486Z,98853.19
2023-01-01T04:58:41.182Z,98849.78
2023-01-01T05:01:10.873Z,98854.91
2023-01-01T05:03:39.597Z,98853.13
2023-01-01T05:06:09.280Z,98840.50
2023-01-01T05:08:39.297Z,98838.75
2023-01-01T05:11:11.456Z,98828.56
2023-01-01T05:13:41.905Z,98819.91
2023-01-01T05:16:12.432Z,98831.91
2023-01-01T05:18:41.660Z,98832.78
2023-01-01T05:21:11.852Z,98827.63
2023-01-01T05:23:40.202Z,98839.50
2023-01-01T05:26:13.669Z,98829.41
2023-01-01T05:28:42.584Z,98844.66
2023-01-01T05:31:13.433Z,98834.44
2023-01-01T05:33:42.930Z,98834.38
2023-01-01T05:36:16.417Z,98833.66
2023-01-01T05:38:44.829Z,98831.13
2023-01-01T05:41:16.401Z,98835.34
2023-01-01T05:43:44.895Z,98820.00
2023-01-01T05:46:14.643Z,98812.56
2023-01-01T05:48:43.082Z,98808.94
2023-01-01T05:51:13.491Z,98798.72
2023-01-01T05:53:42.160Z,98799.50
2023-01-01T05:56:10.525Z,98806.38
2023-01-01T05:58:40.477Z,98805.53
2023-01-01T06:01:10.849Z,98797.94
2023-01-01T06:03:39.238Z,98799.66
2023-01-01T06:06:08.803Z,98803.03
2023-01-01T06:08:37.122Z,98813.28
2023-01-01T06:11:06.532Z,98819.25
2023-01-01T06:13:35.080Z,98806.44
2023-01-01T06:16:05.472Z,98785.09
2023-01-01T06:18:35.892Z,98789.38
2023-01-01T06:21:08.277Z,98789.31
2023-01-01T06:23:36.738Z,98785.97
2023-01-01T06:26:09.701Z,98778.31
2023-01-01T06:28:38.546Z,98781.75
2023-01-01T06:31:09.844Z,98791.16
2023-01-01T06:33:38.304Z,98792.00
2023-01-01T06:36:09.281Z,98780.09
2023-01-01T06:38:40.810Z,98781.81
2023-01-01T06:41:11.359Z,98761.34
2023-01-01T06:43:39.884Z,98771.69
2023-01-01T06:46:15.756Z,98756.38
2023-01-01T06:48:44.483Z,98746.88
2023-01-01T06:51:15.461Z,98743.53
2023-01-01T06:53:43.938Z,98740.97
2023-01-01T06:56:12.365Z,98742.66
2023-01-01T06:58:40.713Z,98736.78
2023-01-01T07:01:12.664Z,98732.50
2023-01-01T07:03:41.640Z,98728.19
2023-01-01T07:06:13.405Z,98728.09
2023-01-01T07:08:41.814Z,98733.31
2023-01-01T07:11:10.134Z,98737.53
2023-01-01T07:13:38.495Z,98730.69
2023-01-01T07:16:12.613Z,98733.31
2023-01-01T07:18:43.487Z,98730.78
2023-01-01T07:21:29.537Z,98729.06
2023-01-01T07:23:58.710Z,98724.00
2023-01-01T07:26:29.874Z,98721.38
2023-01-01T07:29:04.600Z,98711.19
2023-01-01T07:31:35.366Z,98722.34
2023-01-01T07:34:05.523Z,98726.56
2023-01-01T07:36:33.932Z,98729.97
2023-01-01T07:39:03.013Z,98723.22
2023-01-01T07:41:31.548Z,98715.50
2023-01-01T07:44:00.686Z,98721.47
2023-01-01T07:46:29.211Z,98719.81
2023-01-01T07:48:57.782Z,98703.66
2023-01-01T07:51:27.848Z,98702.78
2023-01-01T07:54:00.623Z,98704.50
2023-01-01T07:56:32.632Z,98699.38
2023-01-01T07:59:01.509Z,98698.53
2023-01-01T08:01:30.047Z,98688.28
2023-01-01T08:03:58.488Z,98692.56
2023-01-01T08:06:28.320Z,98684.06
2023-01-01T08:08:58.037Z,98688.41
2023-01-01T08:11:26.377Z,98690.09
2023-01-01T08:13:54.949Z,98692.66
2023-01-01T08:16:23.356Z,98696.94
2023-01-01T08:18:51.859Z,98701.22
2023-01-01T08:21:20.211Z,98705.53
2023-01-01T08:23:49.957Z,98699.59
2023-01-01T08:26:19.251Z,98684.19
2023-01-01T08:28:52.080Z,98697.03
2023-01-01T08:31:24.248Z,98682.50
2023-01-01T08:33:53.091Z,98682.50
2023-01-01T08:36:22.011Z,98675.66
2023-01-01T08:38:51.755Z,98673.09
2023-01-01T08:41:20.091Z,98661.13
2023-01-01T08:43:48.505Z,98663.72
2023-01-01T08:46:17.158Z,98650.91
2023-01-01T08:48:45.562Z,98652.59
2023-01-01T08:51:13.916Z,98646.66
2023-01-01T08:53:47.025Z,98664.59
2023-01-01T08:56:20.462Z,98658.59
2023-01-01T08:58:49.007Z,98669.72
2023-01-01T09:01:17.535Z,98668.00
2023-01-01T09:03:45.991Z,98668.88
2023-01-01T09:06:14.696Z,98672.28
2023-01-01T09:08:43.074Z,98660.34
2023-01-01T09:11:24.284Z,98647.53
2023-01-01T09:13:53.252Z,98630.44
2023-01-01T09:16:22.620Z,98636.41
2023-01-01T09:18:51.278Z,98632.16
2023-01-01T09:21:19.712Z,98629.59
2023-01-01T09:23:48.117Z,98619.31
2023-01-01T09:26:16.585Z,98608.25
2023-01-01T09:28:46.532Z,98604.81
2023-01-01T09:31:15.017Z,98611.66
2023-01-01T09:33:43.396Z,98615.94
2023-01-01T09:36:16.371Z,98606.53
2023-01-01T09:38:44.679Z,98615.06
2023-01-01T09:41:18.333Z,98599.69
2023-01-01T09:43:55.081Z,98610.81
2023-01-01T09:46:31.482Z,98615.91
2023-01-01T09:49:03.306Z,98598.00
2023-01-01T09:51:38.781Z,98598.00
2023-01-01T09:54:16.119Z,98595.41
2023-01-01T09:56:44.261Z,98600.53
2023-01-01T09:59:15.047Z,98592.00
2023-01-01T10:01:48.415Z,98592.00
2023-01-01T10:04:28.295Z,98584.31
2023-01-01T10:07:03.329Z,98588.56
2023-01-01T10:09:37.117Z,98573.19
2023-01-01T10:12:09.285Z,98572.34
2023-01-01T10:14:42.213Z,98562.91
2023-01-01T10:17:15.661Z,98549.25
2023-01-01T10:19:46.029Z,98537.25
2023-01-01T10:22:20.468Z,98548.38
2023-01-01T10:24:51.859Z,98546.66
2023-01-01T10:27:30.847Z,98544.09
2023-01-01T10:30:04.614Z,98539.81
2023-01-01T10:32:35.355Z,98511.63
2023-01-01T10:35:07.251Z,98520.16
2023-01-01T10:37:37.867Z,98527.84
2023-01-01T10:40:15.470Z,98506.41
2023-01-01T10:42:43.870Z,98517.56
2023-01-01T10:45:16.988Z,98509.84
2023-01-01T10:48:13.212Z,98512.41
2023-01-01T10:50:50.995Z,98509.81
2023-01-01T10:53:28.338Z,98507.28
2023-01-01T10:56:06.622Z,98503.84
2023-01-01T10:58:44.371Z,98498.69
2023-01-01T11:01:22.273Z,98497.81
2023-01-01T11:03:58.428Z,98497.78
2023-01-01T11:06:28.095Z,98489.28
2023-01-01T11:08:58.678Z,98486.69
2023-01-01T11:11:31.808Z,98493.53
2023-01-01T11:14:03.864Z,98489.22
2023-01-01T11:16:33.986Z,98484.97
2023-01-01T11:19:04.963Z,98492.66
2023-01-01T11:21:34.298Z,98490.13
2023-01-01T11:24:19.416Z,98481.56
2023-01-01T11:26:53.971Z,98480.75
2023-01-01T11:29:28.570Z,98474.69
2023-01-01T11:31:58.711Z,98479.00
2023-01-01T11:34:30.459Z,98479.00
2023-01-01T11:37:21.366Z,98470.44
2023-01-01T11:39:51.225Z,98470.41
2023-01-01T11:42:21.586Z,98459.34
2023-01-01T11:44:53.535Z,98461.06
2023-01-01T11:47:27.781Z,98455.91
2023-01-01T11:50:01.369Z,98458.50
2023-01-01T11:52:39.094Z,98453.34
2023-01-01T11:55:17.068Z,98454.22
2023-01-01T11:57:48.975Z,98449.13
2023-01-01T12:00:17.926Z,98437.16
2023-01-01T12:02:52.401Z,98440.56
2023-01-01T12:05:24.799Z,98442.25
2023-01-01T12:07:53.898Z,98431.94
2023-01-01T12:10:24.503Z,98431.09
2023-01-01T12:12:57.922Z,98433.69
2023-01-01T12:15:31.486Z,98431.06
2023-01-01T12:18:06.071Z,98421.69
2023-01-01T12:20:37.091Z,98415.72
2023-01-01T12:23:05.754Z,98423.41
2023-01-01T12:25:38.309Z,98422.56
2023-01-01T12:28:16.954Z,98422.44
2023-01-01T12:30:50.917Z,98420.81
2023-01-01T12:33:56.879Z,98410.53
2023-01-01T12:36:27.265Z,98424.25
2023-01-01T12:39:24.477Z,98422.50
2023-01-01T12:41:58.089Z,98414.66
2023-01-01T12:44:34.520Z,98414.75
2023-01-01T12:47:08.997Z,98421.59
2023-01-01T12:49:53.547Z,98418.13
2023-01-01T12:52:34.436Z,98424.13
2023-01-01T12:55:26.458Z,98424.94
2023-01-01T12:57:59.055Z,98424.09
2023-01-01T13:00:28.332Z,98412.97
2023-01-01T13:03:02.299Z,98412.03
2023-01-01T13:05:36.803Z,98410.38
2023-01-01T13:08:06.175Z,98409.47
2023-01-01T13:10:36.248Z,98406.06
2023-01-01T13:13:05.240Z,98400.09
2023-01-01T13:15:44.880Z,98396.69
2023-01-01T13:18:27.880Z,98404.38
2023-01-01T13:21:02.708Z,98395.81
2023-01-01T13:23:48.040Z,98391.59
2023-01-01T13:26:41.049Z,98385.56
2023-01-01T13:29:36.362Z,98382.13
2023-01-01T13:32:08.798Z,98373.59
2023-01-01T13:34:53.757Z,98370.09
2023-01-01T13:37:54.696Z,98369.28
2023-01-01T13:40:51.332Z,98362.47
2023-01-01T13:43:30.646Z,98357.28
2023-01-01T13:46:12.196Z,98361.56
2023-01-01T13:49:06.993Z,98361.59
2023-01-01T13:52:05.204Z,98377.00
2023-01-01T13:55:13.181Z,98371.84
2023-01-01T13:58:12.472Z,98357.31
2023-01-01T14:00:49.857Z,98355.56
2023-01-01T14:03:19.738Z,98374.41
2023-01-01T14:05:50.748Z,98366.63
2023-01-01T14:08:37.585Z,98378.56
2023-01-01T14:11:20.751Z,98372.63
2023-01-01T14:13:49.599Z,98360.63
2023-01-01T14:16:18.294Z,98346.94
2023-01-01T14:18:48.410Z,98342.63
2023-01-01T14:21:18.898Z,98340.06
2023-01-01T14:23:53.125Z,98341.75
2023-01-01T14:26:24.698Z,98344.16
2023-01-01T14:28:55.342Z,98346.03
2023-01-01T14:31:27.134Z,98343.50
2023-01-01T14:33:55.625Z,98346.91
2023-01-01T14:36:25.555Z,98343.44
2023-01-01T14:38:55.766Z,98329.72
2023-01-01T14:41:29.742Z,98336.56
2023-01-01T14:43:59.678Z,98322.78
2023-01-01T14:46:28.666Z,98313.44
2023-01-01T14:48:58.746Z,98310.03
2023-01-01T14:51:28.747Z,98313.41
2023-01-01T14:53:59.317Z,98314.31
2023-01-01T14:56:30.754Z,98320.28
2023-01-01T14:59:06.661Z,98320.22
2023-01-01T15:01:35.407Z,98319.28
2023-01-01T15:04:05.698Z,98306.53
2023-01-01T15:06:34.272Z,98312.53
2023-01-01T15:09:02.753Z,98310.81
2023-01-01T15:11:33.004Z,98302.22
2023-01-01T15:14:03.231Z,98305.66
2023-01-01T15:16:38.080Z,98301.28
2023-01-01T15:19:19.597Z,98308.13
2023-01-01T15:21:48.204Z,98308.94
2023-01-01T15:24:20.566Z,98307.25
2023-01-01T15:26:53.806Z,98295.31
2023-01-01T15:29:28.976Z,98295.22
2023-01-01T15:32:01.522Z,98286.63
2023-01-01T15:34:32.514Z,98281.53
2023-01-01T15:37:09.861Z,98293.38
2023-01-01T15:39:47.575Z,98277.22
2023-01-01T15:42:34.410Z,98271.09
2023-01-01T15:45:24.146Z,98268.56
2023-01-01T15:47:53.637Z,98253.22
2023-01-01T15:50:26.400Z,98248.97
2023-01-01T15:52:57.456Z,98254.81
2023-01-01T15:55:27.379Z,98259.22
2023-01-01T15:57:57.650Z,98266.78
2023-01-01T16:00:27.614Z,98267.75
2023-01-01T16:03:00.434Z,98263.53
2023-01-01T16:05:29.314Z,98260.94
2023-01-01T16:08:02.047Z,98255.75
2023-01-01T16:10:32.024Z,98260.91
2023-01-01T16:13:01.826Z,98257.53
2023-01-01T16:15:30.390Z,98254.16
2023-01-01T16:17:58.824Z,98250.69
2023-01-01T16:20:27.507Z,98254.06
2023-01-01T16:22:56.520Z,98241.19
2023-01-01T16:25:24.948Z,98234.25
2023-01-01T16:27:53.287Z,98222.34
2023-01-01T16:30:26.986Z,98219.00
2023-01-01T16:32:55.624Z,98218.84
2023-01-01T16:35:23.960Z,98222.31
2023-01-01T16:37:52.904Z,98224.06
2023-01-01T16:40:21.261Z,98218.78
2023-01-01T16:42:49.607Z,98221.44
2023-01-01T16:45:19.381Z,98225.78
2023-01-01T16:47:49.293Z,98219.75
2023-01-01T16:50:17.776Z,98220.47
2023-01-01T16:52:46.179Z,98213.72
2023-01-01T16:55:14.663Z,98222.28
2023-01-01T16:57:45.519Z,98217.09
2023-01-01T17:00:15.811Z,98211.97
2023-01-01T17:02:44.247Z,98209.38
2023-01-01T17:05:14.281Z,98211.88
2023-01-01T17:07:43.711Z,98185.22
2023-01-01T17:10:12.122Z,98197.25
2023-01-01T17:12:40.622Z,98191.22
2023-01-01T17:15:09.683Z,98185.19
2023-01-01T17:17:38.204Z,98166.41
2023-01-01T17:20:07.549Z,98167.94
2023-01-01T17:22:39.640Z,98167.13
2023-01-01T17:25:09.197Z,98167.84
2023-01-01T17:27:37.619Z,98167.81
2023-01-01T17:30:07.064Z,98169.53
2023-01-01T17:32:35.848Z,98168.75
2023-01-01T17:35:04.872Z,98160.91
2023-01-01T17:37:34.231Z,98174.38
2023-01-01T17:40:04.001Z,98165.00
2023-01-01T17:42:32.527Z,98158.13
2023-01-01T17:45:01.042Z,98156.34
2023-01-01T17:47:32.953Z,98153.78
2023-01-01T17:50:01.990Z,98154.44
2023-01-01T17:52:32.108Z,98166.56
2023-01-01T17:55:00.538Z,98155.41
2023-01-01T17:57:30.255Z,98164.66
2023-01-01T17:59:59.501Z,98157.81
2023-01-01T18:02:28.013Z,98170.78
2023-01-01T18:04:56.640Z,98157.78
2023-01-01T18:07:25.032Z,98155.16
2023-01-01T18:09:53.401Z,98160.34
2023-01-01T18:12:21.862Z,98154.31
2023-01-01T18:14:51.667Z,98153.47
2023-01-01T18:17:20.930Z,98145.81
2023-01-01T18:19:49.317Z,98146.56
2023-01-01T18:22:17.649Z,98147.44
2023-01-01T18:24:46.013Z,98150.63
2023-01-01T18:27:14.442Z,98140.41
2023-01-01T18:29:42.861Z,98136.03
2023-01-01T18:32:12.679Z,98135.09
2023-01-01T18:34:41.063Z,98127.34
2023-01-01T18:37:09.514Z,98135.72
2023-01-01T18:39:41.914Z,98142.41
2023-01-01T18:42:31.058Z,98131.81
2023-01-01T18:45:05.217Z,98116.53
2023-01-01T18:47:35.546Z,98117.06
2023-01-01T18:50:14.350Z,98127.25
2023-01-01T18:52:42.755Z,98141.16
2023-01-01T18:55:14.931Z,98131.53
2023-01-01T18:57:49.472Z,98129.72
2023-01-01T19:00:24.358Z,98136.69
2023-01-01T19:03:01.255Z,98134.88
2023-01-01T19:05:31.295Z,98130.56
2023-01-01T19:08:04.512Z,98133.13
2023-01-01T19:10:38.710Z,98127.13
2023-01-01T19:13:17.019Z,98139.09
2023-01-01T19:15:47.152Z,98133.16
2023-01-01T19:18:20.071Z,98132.16
2023-01-01T19:20:52.050Z,98122.59
2023-01-01T19:23:24.191Z,98126.94
2023-01-01T19:25:53.115Z,98121.63
2023-01-01T19:28:32.630Z,98107.91
2023-01-01T19:31:02.773Z,98120.72
2023-01-01T19:33:33.196Z,98127.78
2023-01-01T19:36:01.993Z,98127.66
2023-01-01T19:38:30.702Z,98131.97
2023-01-01T19:40:59.133Z,98149.00
2023-01-01T19:43:27.883Z,98151.38
2023-01-01T19:45:56.340Z,98148.09
2023-01-01T19:48:24.754Z,98149.94
2023-01-01T19:50:57.334Z,98161.09
2023-01-01T19:53:25.912Z,98167.88
2023-01-01T19:55:54.436Z,98164.41
2023-01-01T19:58:23.283Z,98162.81
2023-01-01T20:00:52.986Z,98156.09
2023-01-01T20:06:12.173Z,98143.28
2023-01-01T20:08:40.668Z,98153.63
2023-01-01T20:11:09.557Z,98149.56
2023-01-01T20:13:37.980Z,98153.75
2023-01-01T20:16:07.027Z,98143.53
2023-01-01T20:18:35.803Z,98140.13
2023-01-01T20:21:25.943Z,98140.75
2023-01-01T20:23:56.884Z,98139.97
2023-01-01T20:26:26.282Z,98143.44
2023-01-01T20:29:12.425Z,98139.31
2023-01-01T20:31:41.953Z,98163.25
2023-01-01T20:34:10.959Z,98149.34
2023-01-01T20:36:56.851Z,98176.03
2023-01-01T20:39:27.448Z,98164.88
2023-01-01T20:41:56.305Z,98151.22
2023-01-01T20:44:25.128Z,98170.91
2023-01-01T20:46:54.176Z,98169.09
2023-01-01T20:49:23.950Z,98178.78
2023-01-01T20:51:54.334Z,98189.81
2023-01-01T20:54:23.801Z,98185.50
2023-01-01T20:56:54.980Z,98197.50
2023-01-01T20:59:35.370Z,98200.22
2023-01-01T21:02:05.237Z,98197.53
2023-01-01T21:04:38.926Z,98199.31
2023-01-01T21:07:09.126Z,98197.75
2023-01-01T21:09:37.696Z,98180.53
2023-01-01T21:12:11.331Z,98189.97
2023-01-01T21:14:40.699Z,98189.19
2023-01-01T21:17:19.576Z,98193.50
2023-01-01T21:19:48.250Z,98196.16
2023-01-01T21:22:16.707Z,98186.63
2023-01-01T21:24:51.575Z,98179.03
2023-01-01T21:27:26.740Z,98180.78
2023-01-01T21:29:57.787Z,98172.31
2023-01-01T21:32:28.468Z,98178.38
2023-01-01T21:34:57.538Z,98184.38
2023-01-01T21:37:46.161Z,98189.47
2023-01-01T21:40:42.159Z,98186.06
2023-01-01T21:43:40.507Z,98176.44
2023-01-01T21:46:35.153Z,98152.56
2023-01-01T21:49:07.020Z,98150.75
2023-01-01T21:51:41.551Z,98152.66
2023-01-01T21:54:20.256Z,98161.31
2023-01-01T21:56:54.486Z,98161.25
2023-01-01T21:59:32.942Z,98157.84
2023-01-01T22:02:29.292Z,98152.81
2023-01-01T22:04:57.963Z,98163.16
2023-01-01T22:07:56.442Z,98162.31
2023-01-01T22:10:20.850Z,98164.19
2023-01-01T22:12:49.686Z,98169.28
2023-01-01T22:15:41.794Z,98170.22
2023-01-01T22:18:24.874Z,98150.56
2023-01-01T22:20:53.989Z,98147.19
2023-01-01T22:23:25.977Z,98142.19
2023-01-01T22:25:54.643Z,98147.38
2023-01-01T22:28:25.452Z,98150.84
2023-01-01T22:30:59.173Z,98144.91
2023-01-01T22:33:38.183Z,98136.50
2023-01-01T22:36:13.206Z,98128.06
2023-01-01T22:38:41.875Z,98131.44
2023-01-01T22:41:10.334Z,98130.72
2023-01-01T22:43:41.083Z,98135.09
2023-01-01T22:46:18.203Z,98136.75
2023-01-01T22:48:51.148Z,98142.97
2023-01-01T22:51:24.269Z,98144.06
2023-01-01T22:53:52.643Z,98163.19
2023-01-01T22:56:21.617Z,98172.13
2023-01-01T22:58:56.489Z,98179.16
2023-01-01T23:01:26.927Z,98189.56
2023-01-01T23:03:55.479Z,98201.72
2023-01-01T23:06:24.469Z,98200.91
2023-01-01T23:08:53.666Z,98200.25
2023-01-01T23:11:22.607Z,98187.47
2023-01-01T23:14:09.892Z,98202.09
2023-01-01T23:16:39.896Z,98204.69
2023-01-01T23:19:08.304Z,98207.31
2023-01-01T23:21:37.431Z,98219.31
2023-01-01T23:24:07.707Z,98224.53
2023-01-01T23:26:36.116Z,98234.88
2023-01-01T23:29:04.808Z,98246.09
2023-01-01T23:31:34.109Z,98245.25
2023-01-01T23:34:04.082Z,98269.25
2023-01-01T23:36:32.996Z,98288.03
2023-01-01T23:39:01.596Z,98299.13
2023-01-01T23:41:30.126Z,98301.72
2023-01-01T23:43:59.376Z,98305.13
2023-01-01T23:46:28.097Z,98292.34
2023-01-01T23:48:56.872Z,98299.19
2023-01-01T23:51:26.796Z,98300.91
2023-01-01T23:53:55.245Z,98321.38
2023-01-01T23:56:24.101Z,98330.78
2023-01-01T23:58:52.629Z,98337.63
